Wetterstation Vordersexau
Wetterdaten: April 2017
Datum Temp. A. Feuchte A. Luftdruck Regen Wind Richtung Taupunkt Windchill Windben
01.04.2017 13,6 C 59 % 1010,3 hPa 0,0 l/m 1,4 km/h O-SO 5,2 C 13,6 C 0,8 km/h
02.04.2017 12,7 C 71 % 1015,2 hPa 0,0 l/m 1,7 km/h W 7,3 C 12,6 C 1,0 km/h
03.04.2017 13,6 C 72 % 1019,8 hPa 0,0 l/m 0,5 km/h N-NO 8,4 C 13,6 C 0,3 km/h
04.04.2017 11,6 C 70 % 1019,3 hPa 0,0 l/m 0,6 km/h O-SO 5,8 C 11,5 C 0,4 km/h
05.04.2017 12,2 C 65 % 1019,6 hPa 0,0 l/m 2,6 km/h O-SO 5,1 C 11,7 C 1,5 km/h
06.04.2017 10,9 C 59 % 1022,1 hPa 0,0 l/m 4,0 km/h N 2,6 C 10,2 C 2,2 km/h
07.04.2017 6,7 C 72 % 1021,8 hPa 32,1 l/m 0,0 km/h O-SO 1,9 C 6,7 C 0,0 km/h
08.04.2017 13,3 C 62 % 1020,4 hPa 0,0 l/m 0,5 km/h W 4,9 C 13,2 C 0,3 km/h
09.04.2017 16,1 C 59 % 1020,2 hPa 0,0 l/m 0,8 km/h W-NW 6,5 C 16,1 C 0,4 km/h
10.04.2017 17,3 C 56 % 1017,4 hPa 0,0 l/m 5,3 km/h O-SO 7,2 C 16,7 C 2,9 km/h
11.04.2017 12,9 C 56 % 1021,2 hPa 0,0 l/m 2,0 km/h N 3,4 C 12,7 C 1,1 km/h
12.04.2017 12,7 C 55 % 1017,1 hPa 0,0 l/m 1,1 km/h N-NO 2,7 C 12,7 C 0,6 km/h
13.04.2017 13,7 C 59 % 1013,6 hPa 0,0 l/m 0,8 km/h N 5,1 C 13,6 C 0,4 km/h
14.04.2017 12,7 C 61 % 1014,4 hPa 0,0 l/m 0,4 km/h N 4,9 C 12,7 C 0,2 km/h
15.04.2017 10,7 C 75 % 1015,2 hPa 0,0 l/m 0,2 km/h SO 6,3 C 10,7 C 0,1 km/h
16.04.2017 8,4 C 82 % 1014,0 hPa 5,2 l/m 0,1 km/h O-SO 5,5 C 8,4 C 0,1 km/h
17.04.2017 6,9 C 83 % 1006,1 hPa 6,2 l/m 2,6 km/h O 4,2 C 6,2 C 1,4 km/h
18.04.2017 4,8 C 74 % 1021,0 hPa 0,0 l/m 1,1 km/h N 0,3 C 4,5 C 0,6 km/h
19.04.2017 3,9 C 77 % 1026,9 hPa 1,6 l/m 1,5 km/h N-NO 0,1 C 3,4 C 0,8 km/h
20.04.2017 6,4 C 59 % 1030,6 hPa 0,5 l/m 1,9 km/h NO -2,3 C 6,2 C 1,0 km/h
21.04.2017 9,4 C 55 % 1027,8 hPa 0,0 l/m 0,3 km/h O-SO -0,7 C 9,4 C 0,2 km/h
22.04.2017 8,7 C 65 % 1022,3 hPa 0,0 l/m 0,0 km/h O-SO 2,3 C 8,7 C 0,0 km/h
23.04.2017 9,9 C 57 % 1020,8 hPa 0,0 l/m 1,7 km/h O-NO 0,6 C 9,7 C 0,9 km/h
24.04.2017 12,5 C 53 % 1013,0 hPa 0,0 l/m 0,4 km/h SO 1,8 C 12,5 C 0,2 km/h
25.04.2017 9,9 C 72 % 1006,0 hPa 10,4 l/m 1,7 km/h N 4,9 C 9,5 C 1,0 km/h
26.04.2017 6,5 C 78 % 1008,0 hPa 9,8 l/m 0,2 km/h N-NO 2,9 C 6,5 C 0,1 km/h
27.04.2017 5,3 C 83 % 1012,0 hPa 13,0 l/m 0,3 km/h W-NW 2,6 C 5,3 C 0,2 km/h
28.04.2017 7,9 C 70 % 1012,6 hPa 0,0 l/m 1,6 km/h N 2,3 C 7,4 C 0,9 km/h
29.04.2017 11,7 C 58 % 1014,2 hPa 0,0 l/m 0,2 km/h O-SO 2,5 C 11,7 C 0,1 km/h
30.04.2017 14,4 C 51 % 1007,0 hPa 0,0 l/m 1,4 km/h W 3,3 C 14,2 C 0,8 km/h
Min-Datum 20.04.17 21.04.17 17.04.17 8 Tage 01.04.17 - 20.04.17 20.04.17 01.04.17
Min-Zeit 05:57 17:57 08:57 - 01:57 - 05:57 05:57 01:57
Minimum -4,1 C 21 % 988,7 hPa - 0,0 km/h - -6,1 C -4,1 C 0,0 km/h
Max-Datum 09.04.17 20.04.17 20.04.17 07.04.17 10.04.17 - 03.04.17 09.04.17 10.04.17
Max-Zeit 18:57 04:57 09:57 23:57 14:57 - 15:57 18:57 14:57
Maximum 34,9 C 86 % 1031,9 hPa 32,1 l/m 24,6 km/h
O-SO
- 12,2 C 34,9 C 13,7 km/h
O-SO
Durchschnitt 10,6 C 66 % 1017,0 hPa #78,7 l/m 1,2 km/h N 3,6 C 10,4 C 0,7 km/h

Durchschnitt Minimum Temp.3,0 C
Durchschnitt Maximum Temp.20,2 C
www.sexauwetter.de